Time;durP1;ratioP1;P1;durP2;ratioP2;P2;SDS_P1;SDS_P2;PMS_P1;PMS_P2;Temp;Humidity;BMP_temperature;BMP_pressure;BME280_temperature;BME280_humidity;BME280_pressure;Samples;Min_cycle;Max_cycle;Signal;HPM_P1;HPM_P2
2021/11/26 00:02:25;;;;;;;0.50;0.50;;;20.80;59.50;;;;;;6214800;23;20084;-73
2021/11/26 00:04:51;;;;;;;1.13;0.60;;;20.80;59.50;;;;;;6164010;23;20047;-73
2021/11/26 00:07:18;;;;;;;0.85;0.55;;;20.80;59.50;;;;;;6214840;23;20009;-72
2021/11/26 00:09:44;;;;;;;0.47;0.43;;;20.80;59.50;;;;;;6188599;23;19997;-72
2021/11/26 00:12:10;;;;;;;1.05;0.60;;;20.80;59.50;;;;;;6188044;23;20066;-72
2021/11/26 00:14:43;;;;;;;1.05;0.70;;;20.80;59.60;;;;;;6214643;23;20361;-72
2021/11/26 00:17:16;;;;;;;1.40;0.40;;;20.80;59.60;;;;;;6214691;23;20005;-72
2021/11/26 00:19:42;;;;;;;1.30;0.65;;;20.80;59.60;;;;;;6214516;23;20005;-72
2021/11/26 00:22:07;;;;;;;0.82;0.50;;;20.70;59.60;;;;;;6214798;23;20080;-73
2021/11/26 00:24:33;;;;;;;1.52;0.88;;;20.80;59.70;;;;;;6214534;23;20009;-72
2021/11/26 00:26:58;;;;;;;0.80;0.55;;;20.80;59.70;;;;;;6187641;23;20055;-73
2021/11/26 00:29:24;;;;;;;1.30;0.60;;;20.80;59.70;;;;;;6188270;23;20336;-72
2021/11/26 00:31:50;;;;;;;0.98;0.68;;;20.80;59.70;;;;;;6187892;23;20024;-72
2021/11/26 00:34:15;;;;;;;0.95;0.60;;;20.80;59.70;;;;;;6214599;23;20064;-72
2021/11/26 00:36:41;;;;;;;0.90;0.60;;;20.80;59.80;;;;;;6214440;23;20134;-72
2021/11/26 00:39:07;;;;;;;1.00;0.70;;;20.80;59.80;;;;;;6214543;23;20507;-72
2021/11/26 00:41:32;;;;;;;1.23;0.70;;;20.70;59.70;;;;;;6187242;23;20008;-72
2021/11/26 00:43:58;;;;;;;1.58;0.70;;;20.80;59.80;;;;;;6188096;23;20011;-73
2021/11/26 00:46:24;;;;;;;1.38;0.70;;;20.80;59.80;;;;;;6188003;23;20001;-73
2021/11/26 00:48:49;;;;;;;1.75;0.60;;;20.80;59.80;;;;;;6187990;23;19997;-73
2021/11/26 00:51:15;;;;;;;1.05;0.60;;;20.80;59.90;;;;;;6187971;23;20001;-73
2021/11/26 00:53:40;;;;;;;2.70;0.80;;;20.80;59.90;;;;;;6214190;23;20005;-73
2021/11/26 00:56:06;;;;;;;0.65;0.60;;;20.80;59.90;;;;;;6214259;23;20008;-73
2021/11/26 00:58:32;;;;;;;0.60;0.50;;;20.80;59.90;;;;;;6214307;23;20000;-72
2021/11/26 01:00:57;;;;;;;1.23;0.80;;;20.80;59.90;;;;;;6187919;23;20054;-72
2021/11/26 01:03:23;;;;;;;0.77;0.70;;;20.80;60.00;;;;;;6188024;23;20440;-73
2021/11/26 01:05:49;;;;;;;0.85;0.60;;;20.80;59.90;;;;;;6162844;23;20352;-72
2021/11/26 01:08:16;;;;;;;1.20;0.50;;;20.80;60.00;;;;;;6188245;23;20105;-72
2021/11/26 01:10:42;;;;;;;0.98;0.57;;;20.80;59.90;;;;;;6187768;23;20455;-73
2021/11/26 01:13:09;;;;;;;1.35;0.82;;;20.80;60.00;;;;;;6214474;23;20001;-73
2021/11/26 01:15:36;;;;;;;2.45;0.55;;;20.80;60.00;;;;;;6214727;23;20020;-72
2021/11/26 01:18:02;;;;;;;0.75;0.65;;;20.80;60.00;;;;;;6163782;23;20000;-73
2021/11/26 01:20:29;;;;;;;0.57;0.50;;;20.80;60.00;;;;;;6187878;23;20005;-72
2021/11/26 01:22:55;;;;;;;0.85;0.70;;;20.80;60.00;;;;;;6163271;23;20026;-72
2021/11/26 01:25:20;;;;;;;0.90;0.60;;;20.80;60.00;;;;;;6162582;23;20008;-72
2021/11/26 01:27:46;;;;;;;1.02;0.70;;;20.80;60.00;;;;;;6162747;23;20059;-72
2021/11/26 01:30:26;;;;;;;0.65;0.60;;;20.80;60.00;;;;;;6187988;23;20007;-73
2021/11/26 01:32:52;;;;;;;1.13;0.57;;;20.80;60.00;;;;;;6189715;23;20047;-72
2021/11/26 01:35:18;;;;;;;1.00;0.50;;;20.80;60.10;;;;;;6214440;23;20071;-72
2021/11/26 01:37:44;;;;;;;0.60;0.60;;;20.80;60.10;;;;;;6214233;23;20028;-72
2021/11/26 01:40:10;;;;;;;1.27;0.75;;;20.80;60.10;;;;;;6162784;23;19996;-72
2021/11/26 01:42:36;;;;;;;0.95;0.70;;;20.80;60.10;;;;;;6188276;23;20011;-72
2021/11/26 01:45:01;;;;;;;0.50;0.50;;;20.80;60.10;;;;;;6214223;23;20001;-72
2021/11/26 01:47:27;;;;;;;0.63;0.43;;;20.80;60.10;;;;;;6214378;23;20001;-73
2021/11/26 01:49:53;;;;;;;1.30;0.50;;;20.80;60.10;;;;;;6187603;23;20460;-72
2021/11/26 01:52:18;;;;;;;0.98;0.60;;;20.80;60.10;;;;;;6215147;23;20313;-73
2021/11/26 01:54:44;;;;;;;0.40;0.40;;;20.80;60.20;;;;;;6215715;23;20066;-72
2021/11/26 01:57:09;;;;;;;0.88;0.65;;;20.80;60.20;;;;;;6189683;23;20490;-72
2021/11/26 01:59:35;;;;;;;1.23;0.77;;;20.80;60.10;;;;;;6189488;23;20004;-72
2021/11/26 02:02:01;;;;;;;1.25;0.60;;;20.80;60.10;;;;;;6189641;23;20490;-73
2021/11/26 02:04:26;;;;;;;0.77;0.55;;;20.80;60.20;;;;;;6164706;23;20004;-72
2021/11/26 02:06:52;;;;;;;0.82;0.68;;;20.80;60.20;;;;;;6215787;23;20035;-72
2021/11/26 02:09:18;;;;;;;0.65;0.50;;;20.80;60.20;;;;;;6164390;23;20396;-73
2021/11/26 02:11:43;;;;;;;1.55;0.70;;;20.80;60.20;;;;;;6164454;23;19997;-72
2021/11/26 02:14:10;;;;;;;0.93;0.55;;;20.80;60.20;;;;;;6189608;23;19997;-72
2021/11/26 02:16:46;;;;;;;2.05;0.70;;;20.80;60.20;;;;;;6189789;23;20007;-72
2021/11/26 02:19:12;;;;;;;0.98;0.80;;;20.80;60.20;;;;;;6164846;23;20077;-72
2021/11/26 02:21:38;;;;;;;0.50;0.50;;;20.80;60.20;;;;;;6189356;23;20000;-72
2021/11/26 02:24:04;;;;;;;0.70;0.60;;;20.80;60.20;;;;;;6164348;23;20028;-73
2021/11/26 02:26:37;;;;;;;0.60;0.40;;;20.80;60.30;;;;;;6215517;23;20032;-72
2021/11/26 02:29:02;;;;;;;1.73;0.55;;;20.80;60.30;;;;;;6165052;23;20332;-72
2021/11/26 02:31:28;;;;;;;0.40;0.40;;;20.80;60.30;;;;;;6189295;23;19996;-72
2021/11/26 02:33:54;;;;;;;0.73;0.65;;;20.80;60.30;;;;;;6189079;23;20436;-72
2021/11/26 02:36:19;;;;;;;0.60;0.60;;;20.80;60.30;;;;;;6215769;23;20076;-72
2021/11/26 02:38:45;;;;;;;0.65;0.65;;;20.70;60.30;;;;;;6215192;23;20015;-73
2021/11/26 02:41:10;;;;;;;1.02;0.50;;;20.80;60.30;;;;;;6189201;23;20065;-72
2021/11/26 02:43:36;;;;;;;0.50;0.50;;;20.80;61.40;;;;;;6189228;23;20004;-72
2021/11/26 02:46:02;;;;;;;0.82;0.60;;;20.70;60.30;;;;;;6215375;23;20472;-72
2021/11/26 02:48:27;;;;;;;0.70;0.60;;;20.80;60.30;;;;;;6215614;23;20005;-72
2021/11/26 02:50:53;;;;;;;1.13;0.60;;;20.80;60.40;;;;;;6215271;23;20362;-72
2021/11/26 02:53:19;;;;;;;1.67;0.50;;;20.70;60.30;;;;;;6188838;23;20030;-72
2021/11/26 02:55:44;;;;;;;0.77;0.60;;;20.80;60.40;;;;;;6164085;23;20016;-73
2021/11/26 02:58:10;;;;;;;0.63;0.60;;;20.80;61.40;;;;;;6189216;23;20076;-72
2021/11/26 03:00:37;;;;;;;0.85;0.60;;;20.80;60.40;;;;;;6189188;23;20452;-73
2021/11/26 03:03:02;;;;;;;0.70;0.55;;;20.80;60.40;;;;;;6164076;23;20008;-73
2021/11/26 03:05:28;;;;;;;0.57;0.40;;;20.80;60.40;;;;;;6139219;23;20412;-72
2021/11/26 03:07:54;;;;;;;0.77;0.77;;;20.70;60.30;;;;;;6188380;23;19997;-73
2021/11/26 03:10:20;;;;;;;1.15;0.70;;;20.80;60.40;;;;;;6164216;23;19996;-72
2021/11/26 03:12:52;;;;;;;0.57;0.57;;;20.70;60.30;;;;;;6188941;23;20004;-73
2021/11/26 03:15:18;;;;;;;0.50;0.50;;;20.70;60.40;;;;;;6164814;23;20024;-72
2021/11/26 03:17:44;;;;;;;0.95;0.57;;;20.70;60.40;;;;;;6215215;23;20051;-73
2021/11/26 03:20:10;;;;;;;0.75;0.63;;;20.70;60.40;;;;;;6164116;23;19997;-73
2021/11/26 03:22:35;;;;;;;1.67;0.47;;;20.70;60.40;;;;;;6215175;23;20005;-73
2021/11/26 03:25:02;;;;;;;0.68;0.50;;;20.70;60.40;;;;;;6214947;23;20070;-73
2021/11/26 03:27:28;;;;;;;0.70;0.70;;;20.80;60.50;;;;;;6215091;23;20013;-72
2021/11/26 03:29:54;;;;;;;0.57;0.52;;;20.70;60.50;;;;;;6188548;23;20471;-72
2021/11/26 03:32:20;;;;;;;0.68;0.60;;;20.70;60.40;;;;;;6188698;23;19997;-73
2021/11/26 03:34:45;;;;;;;0.57;0.57;;;20.70;60.50;;;;;;6215116;23;20000;-73
2021/11/26 03:37:11;;;;;;;0.90;0.60;;;20.70;60.40;;;;;;6188172;23;20460;-73
2021/11/26 03:39:36;;;;;;;1.60;0.60;;;20.70;60.50;;;;;;6188535;23;20009;-73
2021/11/26 03:42:04;;;;;;;0.60;0.47;;;20.70;60.50;;;;;;6215172;23;20021;-72
2021/11/26 03:44:29;;;;;;;0.40;0.38;;;20.70;60.50;;;;;;6188745;23;20012;-73
2021/11/26 03:46:55;;;;;;;0.60;0.55;;;20.70;60.50;;;;;;6214787;23;20012;-72
2021/11/26 03:49:20;;;;;;;1.45;0.70;;;20.70;60.50;;;;;;6188758;23;20001;-73
2021/11/26 03:51:46;;;;;;;0.40;0.40;;;20.70;60.60;;;;;;6214393;23;20005;-72
2021/11/26 03:54:12;;;;;;;0.35;0.35;;;20.70;60.50;;;;;;6214926;23;20001;-73
2021/11/26 03:56:37;;;;;;;0.50;0.50;;;20.70;60.50;;;;;;6188500;23;20007;-72
2021/11/26 03:59:06;;;;;;;2.65;1.00;;;20.70;60.50;;;;;;6214814;23;20001;-73
2021/11/26 04:01:31;;;;;;;0.60;0.45;;;20.70;60.60;;;;;;6214867;23;20384;-73
2021/11/26 04:03:57;;;;;;;0.57;0.57;;;20.70;60.60;;;;;;6187932;23;20000;-72
2021/11/26 04:06:23;;;;;;;0.50;0.40;;;20.70;60.60;;;;;;6214697;23;20032;-73
2021/11/26 04:08:48;;;;;;;0.77;0.57;;;20.70;60.60;;;;;;6214778;23;19997;-72
2021/11/26 04:11:14;;;;;;;0.82;0.50;;;20.70;60.60;;;;;;6188249;23;20026;-72
2021/11/26 04:13:40;;;;;;;0.68;0.52;;;20.70;60.60;;;;;;6188313;23;20020;-73
2021/11/26 04:16:12;;;;;;;0.85;0.55;;;20.70;60.60;;;;;;6214596;23;20451;-73
2021/11/26 04:18:38;;;;;;;0.43;0.40;;;20.70;60.60;;;;;;6214489;23;20000;-73
2021/11/26 04:21:03;;;;;;;0.88;0.45;;;20.60;60.50;;;;;;6214460;23;20005;-72
2021/11/26 04:23:29;;;;;;;0.93;0.60;;;20.60;60.60;;;;;;6214898;23;20001;-72
2021/11/26 04:25:55;;;;;;;0.55;0.55;;;20.60;60.50;;;;;;6188005;23;20440;-72
2021/11/26 04:28:22;;;;;;;0.70;0.60;;;20.70;60.70;;;;;;6163510;23;20444;-72
2021/11/26 04:30:47;;;;;;;0.43;0.40;;;20.70;60.60;;;;;;6188042;23;20004;-72
2021/11/26 04:33:13;;;;;;;0.50;0.40;;;20.70;60.60;;;;;;6162765;23;20490;-72
2021/11/26 04:35:38;;;;;;;0.60;0.50;;;20.60;60.60;;;;;;6188033;23;20084;-72
2021/11/26 04:38:04;;;;;;;0.70;0.50;;;20.60;60.60;;;;;;6214512;23;20004;-72
2021/11/26 04:40:30;;;;;;;0.50;0.50;;;20.60;60.60;;;;;;6188037;23;20009;-72
2021/11/26 04:42:55;;;;;;;0.40;0.40;;;20.60;60.60;;;;;;6187913;23;20000;-72
2021/11/26 04:45:21;;;;;;;0.45;0.40;;;20.60;60.60;;;;;;6214474;23;20012;-72
2021/11/26 04:47:47;;;;;;;0.50;0.50;;;20.60;60.70;;;;;;6187761;23;20015;-72
2021/11/26 04:50:13;;;;;;;0.40;0.40;;;20.70;60.70;;;;;;6187877;23;20088;-72
2021/11/26 04:52:38;;;;;;;1.30;0.50;;;20.60;60.70;;;;;;6163424;23;20033;-72
2021/11/26 04:55:05;;;;;;;0.30;0.30;;;20.70;60.70;;;;;;6187803;23;20003;-73
2021/11/26 04:57:30;;;;;;;1.30;0.50;;;20.60;60.70;;;;;;6163533;23;20009;-72
2021/11/26 04:59:56;;;;;;;0.40;0.40;;;20.60;60.70;;;;;;6187893;23;20005;-73
2021/11/26 05:02:22;;;;;;;0.55;0.55;;;20.60;60.70;;;;;;6187572;23;20075;-72
2021/11/26 05:04:48;;;;;;;1.50;0.63;;;20.60;60.80;;;;;;6214463;23;20005;-73
2021/11/26 05:07:13;;;;;;;0.57;0.40;;;20.60;60.80;;;;;;6187678;23;20333;-73
2021/11/26 05:09:39;;;;;;;0.43;0.40;;;20.60;60.80;;;;;;6188043;23;20432;-72
2021/11/26 05:12:05;;;;;;;0.63;0.50;;;20.60;60.80;;;;;;6187913;23;20490;-73
2021/11/26 05:14:32;;;;;;;0.50;0.43;;;20.60;61.80;;;;;;6214310;23;20483;-73
2021/11/26 05:16:57;;;;;;;1.23;0.82;;;20.60;60.70;;;;;;6213794;23;20079;-72
2021/11/26 05:19:23;;;;;;;1.40;0.43;;;20.60;60.70;;;;;;6214397;23;20086;-72
2021/11/26 05:21:49;;;;;;;0.40;0.40;;;20.60;60.70;;;;;;6214226;23;20504;-72
2021/11/26 05:24:14;;;;;;;0.50;0.40;;;20.60;60.70;;;;;;6187748;23;20079;-73
2021/11/26 05:26:40;;;;;;;0.73;0.30;;;20.60;60.80;;;;;;6188018;23;20013;-72
2021/11/26 05:29:06;;;;;;;0.32;0.32;;;20.60;60.80;;;;;;6189672;23;20335;-72
2021/11/26 05:31:36;;;;;;;0.55;0.40;;;20.60;60.80;;;;;;6189486;23;20000;-72
2021/11/26 05:34:03;;;;;;;0.63;0.50;;;20.60;60.80;;;;;;6216252;23;20388;-72
2021/11/26 05:36:28;;;;;;;0.50;0.50;;;20.60;60.80;;;;;;6189989;23;20001;-73
2021/11/26 05:38:54;;;;;;;0.50;0.50;;;20.60;60.80;;;;;;6216314;23;20001;-73
2021/11/26 05:41:20;;;;;;;0.50;0.50;;;20.60;60.80;;;;;;6189762;23;20005;-73
2021/11/26 05:43:45;;;;;;;0.63;0.50;;;20.60;60.80;;;;;;6216198;23;20001;-73
2021/11/26 05:46:11;;;;;;;0.45;0.45;;;20.60;60.80;;;;;;6215648;23;20043;-73
2021/11/26 05:48:36;;;;;;;0.68;0.50;;;20.60;60.80;;;;;;6164916;23;20004;-73
2021/11/26 05:51:02;;;;;;;0.47;0.47;;;20.60;60.80;;;;;;6190003;23;20000;-73
2021/11/26 05:53:28;;;;;;;0.43;0.43;;;20.60;60.80;;;;;;6189960;23;20027;-72
2021/11/26 05:55:57;;;;;;;0.57;0.50;;;20.60;60.80;;;;;;6215969;23;20376;-73
2021/11/26 05:58:23;;;;;;;0.80;0.60;;;20.60;60.80;;;;;;6216092;23;20000;-73
2021/11/26 06:00:49;;;;;;;0.50;0.43;;;20.60;60.80;;;;;;6215699;23;20007;-73
2021/11/26 06:03:14;;;;;;;0.60;0.60;;;20.60;60.90;;;;;;6189384;23;20067;-72
2021/11/26 06:05:40;;;;;;;0.80;0.52;;;20.60;60.90;;;;;;6215951;23;20421;-72
2021/11/26 06:08:05;;;;;;;0.50;0.50;;;20.60;60.90;;;;;;6189478;23;19996;-73
2021/11/26 06:10:31;;;;;;;0.45;0.40;;;20.60;60.90;;;;;;6216012;23;20012;-73
2021/11/26 06:12:57;;;;;;;0.40;0.40;;;20.60;60.90;;;;;;6189247;23;20387;-72
2021/11/26 06:15:22;;;;;;;2.58;0.52;;;20.60;60.90;;;;;;6215583;23;20024;-73
2021/11/26 06:17:48;;;;;;;0.30;0.30;;;20.60;60.90;;;;;;6215902;23;20068;-72
2021/11/26 06:20:14;;;;;;;1.08;0.50;;;20.60;60.90;;;;;;6164542;23;20051;-73
2021/11/26 06:22:40;;;;;;;0.32;0.30;;;20.50;60.90;;;;;;6189150;23;20487;-72
2021/11/26 06:25:07;;;;;;;0.80;0.40;;;20.60;61.00;;;;;;6189529;23;20008;-73
2021/11/26 06:27:32;;;;;;;0.50;0.50;;;20.60;60.90;;;;;;6215542;23;20432;-73
2021/11/26 06:29:58;;;;;;;0.30;0.30;;;20.60;60.90;;;;;;6214129;23;20103;-73
2021/11/26 06:32:25;;;;;;;0.47;0.40;;;20.60;61.00;;;;;;6138493;23;20325;-74
2021/11/26 06:34:51;;;;;;;0.32;0.32;;;20.60;61.00;;;;;;6164124;23;19996;-74
2021/11/26 06:37:17;;;;;;;0.63;0.40;;;20.60;61.00;;;;;;6163844;23;20005;-74
2021/11/26 06:39:44;;;;;;;1.65;0.40;;;20.60;61.00;;;;;;6163157;23;20503;-74
2021/11/26 06:42:09;;;;;;;0.68;0.38;;;20.60;61.00;;;;;;6187937;23;20004;-74
2021/11/26 06:44:36;;;;;;;0.60;0.30;;;20.60;62.00;;;;;;6214070;23;20051;-72
2021/11/26 06:47:05;;;;;;;0.40;0.40;;;20.60;61.00;;;;;;6187749;23;20008;-72
2021/11/26 06:49:31;;;;;;;0.63;0.32;;;20.60;60.90;;;;;;6163876;23;19996;-74
2021/11/26 06:51:57;;;;;;;0.77;0.50;;;20.50;60.70;;;;;;6163110;23;20007;-73
2021/11/26 06:54:25;;;;;;;0.75;0.30;;;20.50;60.70;;;;;;6163953;23;20063;-71
2021/11/26 06:56:53;;;;;;;0.40;0.30;;;20.50;60.70;;;;;;6188827;23;20511;-72
2021/11/26 06:59:19;;;;;;;0.75;0.40;;;20.40;60.70;;;;;;6162761;23;20507;-73
2021/11/26 07:01:44;;;;;;;0.50;0.40;;;20.50;60.70;;;;;;6188773;23;20455;-73
2021/11/26 07:04:12;;;;;;;0.50;0.50;;;20.50;60.70;;;;;;6188745;23;20003;-72
2021/11/26 07:06:40;;;;;;;0.77;0.50;;;20.40;61.70;;;;;;6139991;23;20016;-72
2021/11/26 07:09:08;;;;;;;0.32;0.22;;;20.40;60.70;;;;;;6189299;23;20015;-73
2021/11/26 07:11:34;;;;;;;0.35;0.30;;;20.40;60.60;;;;;;6164932;23;20348;-71
2021/11/26 07:14:00;;;;;;;0.57;0.45;;;20.40;60.60;;;;;;6214941;23;20001;-71
2021/11/26 07:16:25;;;;;;;0.68;0.50;;;20.40;60.50;;;;;;6214928;23;20091;-72
2021/11/26 07:18:55;;;;;;;0.63;0.40;;;20.40;60.50;;;;;;6215172;23;20000;-73
2021/11/26 07:21:20;;;;;;;1.35;0.40;;;20.40;61.50;;;;;;6139333;23;20459;-73
2021/11/26 07:23:46;;;;;;;0.40;0.40;;;20.40;60.50;;;;;;6188648;23;19997;-72
2021/11/26 07:26:12;;;;;;;0.60;0.38;;;20.30;60.40;;;;;;6214711;23;20011;-72
2021/11/26 07:28:37;;;;;;;0.50;0.50;;;20.40;60.30;;;;;;6188559;23;20466;-72
2021/11/26 07:31:03;;;;;;;0.55;0.30;;;20.40;60.30;;;;;;6215023;23;20010;-71
2021/11/26 07:33:29;;;;;;;1.08;0.30;;;20.30;60.20;;;;;;6215316;23;20035;-70
2021/11/26 07:35:54;;;;;;;0.93;0.40;;;20.30;60.20;;;;;;6214753;23;20000;-70
2021/11/26 07:38:20;;;;;;;4.22;1.17;;;20.30;60.20;;;;;;6163333;23;19996;-70
2021/11/26 07:40:46;;;;;;;4.78;1.13;;;20.30;60.30;;;;;;6213296;23;19996;-70
2021/11/26 07:43:11;;;;;;;3.55;1.10;;;20.30;60.20;;;;;;6214454;23;20008;-70
2021/11/26 07:45:37;;;;;;;3.15;1.13;;;20.30;60.20;;;;;;6188672;23;20000;-70
2021/11/26 07:48:03;;;;;;;3.22;1.00;;;20.30;60.10;;;;;;6215021;23;20055;-70
2021/11/26 07:50:29;;;;;;;3.33;0.90;;;20.30;60.20;;;;;;6188471;23;20000;-70
2021/11/26 07:52:54;;;;;;;4.40;1.00;;;20.30;60.10;;;;;;6215013;23;20444;-70
2021/11/26 07:55:20;;;;;;;6.95;1.20;;;20.30;60.10;;;;;;6214804;23;19997;-70
2021/11/26 07:57:46;;;;;;;4.40;1.20;;;20.30;60.00;;;;;;6214493;23;20001;-70
2021/11/26 08:00:12;;;;;;;3.20;1.13;;;20.30;60.00;;;;;;6163698;23;20384;-70
2021/11/26 08:02:38;;;;;;;3.40;1.27;;;20.30;60.00;;;;;;6188623;23;20471;-70
2021/11/26 08:05:04;;;;;;;2.45;1.30;;;20.30;60.00;;;;;;6214771;23;20001;-70
2021/11/26 08:07:30;;;;;;;3.05;1.00;;;20.30;60.00;;;;;;6214615;23;20445;-70
2021/11/26 08:09:55;;;;;;;5.43;1.15;;;20.30;60.00;;;;;;6163723;23;20001;-70
2021/11/26 08:12:21;;;;;;;4.00;1.27;;;20.30;60.00;;;;;;6187807;23;20039;-70
2021/11/26 08:14:49;;;;;;;3.67;1.10;;;20.30;59.90;;;;;;6215007;23;20005;-70
2021/11/26 08:17:15;;;;;;;3.67;1.00;;;20.30;59.80;;;;;;6214468;23;20001;-70
2021/11/26 08:19:40;;;;;;;4.05;1.40;;;20.30;59.80;;;;;;6188195;23;20055;-70
2021/11/26 08:22:06;;;;;;;5.47;1.38;;;20.30;59.80;;;;;;6188269;23;20001;-70
2021/11/26 08:24:32;;;;;;;3.63;1.33;;;20.30;59.90;;;;;;6214576;23;20004;-70
2021/11/26 08:26:57;;;;;;;1.83;1.30;;;20.30;60.90;;;;;;6187732;23;20403;-70
2021/11/26 08:29:23;;;;;;;3.72;1.02;;;20.30;59.80;;;;;;6188012;23;20058;-70
2021/11/26 08:31:49;;;;;;;3.35;1.17;;;20.30;59.80;;;;;;6214606;23;20071;-70
2021/11/26 08:34:14;;;;;;;3.90;1.20;;;20.30;59.80;;;;;;6214494;23;20036;-70
2021/11/26 08:36:40;;;;;;;4.22;1.13;;;20.30;59.70;;;;;;6188243;23;20321;-70
2021/11/26 08:39:06;;;;;;;6.03;1.17;;;20.20;59.60;;;;;;6188056;23;20003;-70
2021/11/26 08:41:32;;;;;;;5.05;1.40;;;20.20;59.60;;;;;;6214059;23;20001;-70
2021/11/26 08:43:58;;;;;;;3.55;1.23;;;20.20;59.60;;;;;;6214658;23;20007;-70
2021/11/26 08:46:23;;;;;;;2.75;0.93;;;20.20;59.60;;;;;;6214327;23;20436;-70
2021/11/26 08:48:49;;;;;;;3.45;1.23;;;20.20;59.60;;;;;;6214683;23;20004;-70
2021/11/26 08:51:16;;;;;;;3.78;1.20;;;20.20;60.60;;;;;;6187966;23;20015;-70
2021/11/26 08:53:45;;;;;;;4.45;1.08;;;20.20;59.50;;;;;;6188254;23;20051;-70
2021/11/26 08:56:11;;;;;;;2.22;1.00;;;20.20;59.50;;;;;;6188459;23;20000;-70
2021/11/26 08:58:37;;;;;;;2.33;0.95;;;20.20;59.50;;;;;;6163275;23;20055;-70
2021/11/26 09:01:05;;;;;;;1.75;0.88;;;20.20;59.50;;;;;;6214384;23;20001;-70
2021/11/26 09:03:33;;;;;;;2.03;1.00;;;20.20;59.50;;;;;;6165088;23;20341;-70
2021/11/26 09:05:58;;;;;;;1.95;1.27;;;20.20;59.50;;;;;;6190234;23;20001;-70
2021/11/26 09:08:25;;;;;;;2.72;1.05;;;20.20;59.50;;;;;;6164983;23;20008;-70
2021/11/26 09:10:51;;;;;;;1.77;0.82;;;20.20;59.40;;;;;;6190377;23;20074;-70
2021/11/26 09:13:16;;;;;;;2.10;0.88;;;20.20;59.40;;;;;;6189863;23;20004;-70
2021/11/26 09:15:42;;;;;;;2.88;0.90;;;20.20;59.50;;;;;;6216414;23;20352;-70
2021/11/26 09:18:09;;;;;;;3.00;0.98;;;20.20;59.40;;;;;;6216529;23;20000;-70
2021/11/26 09:20:35;;;;;;;2.05;0.93;;;20.20;59.40;;;;;;6165178;23;19997;-70
2021/11/26 09:23:01;;;;;;;2.75;1.02;;;20.20;59.40;;;;;;6216102;23;20008;-70
2021/11/26 09:25:27;;;;;;;2.35;0.80;;;20.20;59.30;;;;;;6190107;23;19996;-70
2021/11/26 09:27:53;;;;;;;2.30;0.77;;;20.20;59.30;;;;;;6189757;23;20017;-70
2021/11/26 09:30:19;;;;;;;2.63;1.15;;;20.20;59.30;;;;;;6189981;23;20070;-70
2021/11/26 09:32:45;;;;;;;3.78;1.13;;;20.20;59.30;;;;;;6189949;23;20005;-70
2021/11/26 09:35:11;;;;;;;3.20;0.90;;;20.20;59.20;;;;;;6216292;23;20523;-70
2021/11/26 09:37:37;;;;;;;2.88;0.90;;;20.20;59.20;;;;;;6215711;23;20011;-70
2021/11/26 09:40:04;;;;;;;1.70;0.70;;;20.20;59.30;;;;;;6216415;23;20032;-70
2021/11/26 09:42:30;;;;;;;1.45;0.90;;;20.20;59.20;;;;;;6216460;23;20023;-70
2021/11/26 09:44:59;;;;;;;1.63;0.90;;;20.20;59.20;;;;;;6189805;23;20421;-70
2021/11/26 09:47:25;;;;;;;1.08;0.60;;;20.20;59.20;;;;;;6190413;23;20000;-70
2021/11/26 09:49:50;;;;;;;1.80;0.85;;;20.20;59.10;;;;;;6189725;23;20047;-70
2021/11/26 09:52:16;;;;;;;2.15;1.13;;;20.20;59.10;;;;;;6164397;23;20001;-70
2021/11/26 09:54:44;;;;;;;1.25;0.63;;;20.20;59.10;;;;;;6189531;23;20012;-70
2021/11/26 09:57:09;;;;;;;0.95;0.50;;;20.20;59.10;;;;;;6189835;23;20000;-70
2021/11/26 09:59:37;;;;;;;2.13;0.85;;;20.20;59.00;;;;;;6189444;23;20007;-70
2021/11/26 10:02:10;;;;;;;1.60;0.68;;;20.20;59.00;;;;;;6216165;23;20341;-70
2021/11/26 10:04:35;;;;;;;2.78;0.90;;;20.20;58.90;;;;;;6189413;23;20337;-70
2021/11/26 10:07:02;;;;;;;2.00;0.90;;;20.20;59.00;;;;;;6215669;23;20001;-70
2021/11/26 10:09:27;;;;;;;1.45;0.73;;;20.20;59.00;;;;;;6189344;23;20344;-70
2021/11/26 10:11:54;;;;;;;2.42;0.93;;;20.20;59.00;;;;;;6215958;23;20005;-70
2021/11/26 10:14:28;;;;;;;2.33;0.80;;;20.20;58.90;;;;;;6215652;23;20127;-70
2021/11/26 10:17:20;;;;;;;1.50;0.73;;;20.20;58.90;;;;;;6189392;23;20364;-70
2021/11/26 10:19:51;;;;;;;0.98;0.60;;;20.20;58.80;;;;;;6215672;23;20000;-70
2021/11/26 10:22:28;;;;;;;2.28;0.60;;;20.20;58.90;;;;;;6215569;23;19997;-70
2021/11/26 10:24:57;;;;;;;1.23;0.60;;;20.20;59.00;;;;;;6189194;23;20055;-70
2021/11/26 10:27:50;;;;;;;1.63;0.70;;;20.20;58.90;;;;;;6215606;23;20490;-70
2021/11/26 10:30:20;;;;;;;1.38;0.70;;;20.20;58.80;;;;;;6215743;23;20005;-70
2021/11/26 10:32:53;;;;;;;2.05;0.95;;;20.20;58.90;;;;;;6215729;23;20005;-70
2021/11/26 10:35:18;;;;;;;0.90;0.63;;;20.20;58.90;;;;;;6189177;23;20395;-70
2021/11/26 10:38:14;;;;;;;1.70;0.70;;;20.20;58.90;;;;;;6188793;23;20001;-70
2021/11/26 10:40:42;;;;;;;0.73;0.50;;;20.20;58.80;;;;;;6214974;23;20004;-70
2021/11/26 10:43:38;;;;;;;1.15;0.70;;;20.20;58.90;;;;;;6189419;23;20051;-70
2021/11/26 10:59:10;;;;;;;1.35;0.80;;;20.10;58.70;;;;;;6215499;23;20335;-70
2021/11/26 11:01:43;;;;;;;1.45;0.90;;;20.10;58.70;;;;;;6188892;23;20008;-70
2021/11/26 11:04:16;;;;;;;3.33;0.80;;;20.10;58.60;;;;;;6164560;23;20003;-70
2021/11/26 11:06:43;;;;;;;0.95;0.63;;;20.20;58.70;;;;;;6188503;23;20001;-70
2021/11/26 11:09:09;;;;;;;1.88;0.70;;;20.20;58.70;;;;;;6189138;23;20008;-70
2021/11/26 11:11:35;;;;;;;0.57;0.50;;;20.20;58.60;;;;;;6164298;23;20005;-70
2021/11/26 11:14:12;;;;;;;1.00;0.63;;;20.20;59.60;;;;;;6189025;23;20027;-70
2021/11/26 11:16:48;;;;;;;0.95;0.70;;;20.20;58.60;;;;;;6188794;23;20411;-70
2021/11/26 11:19:14;;;;;;;1.65;0.63;;;20.20;58.50;;;;;;6189212;23;20000;-70
2021/11/26 11:21:39;;;;;;;1.00;0.50;;;20.20;58.60;;;;;;6215048;23;20050;-70
2021/11/26 11:24:05;;;;;;;2.55;0.80;;;20.20;58.60;;;;;;6139256;23;20058;-70
2021/11/26 11:26:31;;;;;;;2.28;0.77;;;20.20;58.50;;;;;;6188283;23;20993;-70
2021/11/26 11:28:57;;;;;;;1.85;0.70;;;20.20;58.50;;;;;;6188708;23;20027;-70
2021/11/26 11:31:23;;;;;;;2.55;0.70;;;20.20;58.50;;;;;;6188620;23;20068;-70
2021/11/26 11:33:48;;;;;;;1.50;0.65;;;20.20;58.50;;;;;;6214933;23;20036;-70
2021/11/26 11:36:14;;;;;;;2.28;1.10;;;20.20;58.40;;;;;;6163919;23;20004;-70
2021/11/26 11:38:40;;;;;;;1.65;0.80;;;20.20;58.40;;;;;;6163800;23;19997;-70
2021/11/26 11:41:07;;;;;;;1.42;0.75;;;20.20;58.40;;;;;;6188579;23;20035;-70
2021/11/26 11:43:48;;;;;;;1.23;0.63;;;20.20;58.40;;;;;;6215277;23;20012;-70
2021/11/26 11:46:14;;;;;;;0.63;0.45;;;20.20;58.20;;;;;;6215079;23;20066;-70
2021/11/26 11:48:51;;;;;;;1.42;0.80;;;20.20;58.30;;;;;;6188394;23;20001;-70
2021/11/26 11:51:30;;;;;;;1.52;0.88;;;20.20;58.20;;;;;;6215129;23;20054;-70
2021/11/26 11:54:05;;;;;;;1.95;0.80;;;20.20;58.20;;;;;;6188859;23;20026;-70
2021/11/26 11:56:57;;;;;;;1.73;0.85;;;20.20;58.30;;;;;;6188540;23;20005;-70
2021/11/26 11:59:33;;;;;;;1.70;0.80;;;20.20;58.10;;;;;;6183173;23;20011;-70
2021/11/26 12:01:59;;;;;;;1.08;0.55;;;20.10;58.30;;;;;;6215674;23;19997;-70
2021/11/26 12:04:26;;;;;;;3.17;1.17;;;20.10;58.30;;;;;;6187884;23;20451;-70
2021/11/26 12:06:52;;;;;;;2.00;0.90;;;20.10;58.30;;;;;;6163896;23;20340;-70
2021/11/26 12:09:28;;;;;;;1.25;0.70;;;20.10;58.20;;;;;;6188370;23;20009;-70
2021/11/26 12:12:11;;;;;;;1.17;0.65;;;20.10;58.20;;;;;;6188333;23;20000;-70
2021/11/26 12:14:49;;;;;;;;;;;20.20;58.20;;;;;;6165611;23;20440;-70
2021/11/26 12:17:32;;;;;;;1.58;0.70;;;20.10;58.00;;;;;;6187811;23;19958;-70
2021/11/26 12:20:11;;;;;;;1.30;0.55;;;20.10;58.20;;;;;;6163853;23;20068;-70
2021/11/26 12:22:40;;;;;;;1.70;0.73;;;20.10;58.30;;;;;;6214623;23;20004;-70
2021/11/26 12:26:12;;;;;;;1.15;0.70;;;20.10;58.30;;;;;;6214647;23;20000;-70
2021/11/26 12:28:35;;;;;;;1.15;0.70;;;20.10;58.10;;;;;;6202126;23;20087;-70
2021/11/26 12:31:05;;;;;;;2.80;0.98;;;20.10;58.30;;;;;;6192727;23;20428;-70
2021/11/26 12:33:30;;;;;;;1.50;0.90;;;20.10;58.30;;;;;;6214025;23;20003;-70
2021/11/26 12:36:00;;;;;;;0.90;0.65;;;20.10;58.20;;;;;;6163280;23;20000;-70
2021/11/26 12:38:42;;;;;;;0.93;0.65;;;20.10;58.10;;;;;;6187874;23;20008;-70
2021/11/26 12:41:09;;;;;;;2.10;1.38;;;20.10;58.00;;;;;;6187964;23;20008;-70
2021/11/26 12:43:48;;;;;;;1.67;0.80;;;20.10;58.10;;;;;;6187851;23;20007;-70
2021/11/26 12:46:22;;;;;;;2.53;0.77;;;20.10;58.00;;;;;;6164333;23;20006;-70
2021/11/26 12:49:08;;;;;;;1.88;0.70;;;20.10;58.00;;;;;;6187969;23;20100;-70
2021/11/26 12:51:35;;;;;;;2.55;1.00;;;20.10;57.90;;;;;;6190334;23;20001;-70
2021/11/26 12:54:04;;;;;;;0.77;0.52;;;20.10;58.00;;;;;;6188210;23;20028;-70
2021/11/26 12:56:30;;;;;;;1.58;0.77;;;20.10;58.00;;;;;;6188279;23;20011;-70
2021/11/26 12:58:55;;;;;;;1.30;0.70;;;20.10;58.00;;;;;;6188084;23;20032;-70
2021/11/26 13:01:21;;;;;;;1.63;0.85;;;20.10;58.00;;;;;;6214087;23;20143;-70
2021/11/26 13:03:47;;;;;;;0.93;0.63;;;20.10;58.90;;;;;;6187846;23;19996;-70